Portada
METAR-TAF:

METAR-TAF

Aeroports :

Malé, Maldives

latitud: 04-12N, longitud: 073-32E, altitud: 2 m

Observació

L'informe es va fer fa 1 hora i 3 minuts, a les 23:00 UTC
Vent 4 kt del Sud/Sud-Est
Temperatura 27°C
Humitat 79%
Pressió 1010 hPa
Visibilitat 10 km o més
Escasses núvols a una alçada de 1800 ft

METAR: VRMM 192300Z 16004KT 9999 FEW018 27/23 Q1010 NOSIG

Hora: 05:03 (00:03 UTC)

Pronòstic

L'informe es va fer fa 1 hora i 3 minuts, a les 23:00 UTC
Pronòstic vàlid del 20 a les 00 UTC al 21 a les 06 UTC
Vent 4 kt del Est
Visibilitat 10 km o més
Escasses núvols a una alçada de 1800 ft
Temporalment
l' 20 a les 01 UTC al 20 a les 07 UTC
Escasses núvols a una alçada de 1900 ft, Cumulonimbus.

TAF: VRMM 192300Z 2000/2106 09004KT 9999 FEW018 TEMPO 2001/2007 FEW019CB

Observacions i pronòstics meteorològics de més de 4000 aeroports (METAR i TAF).

Les estacions disponibles són els punts grocs i vermells al mapa.

Posi el ratolí al punt desitjat per veure el nom de l'estació.

Feu clic per veure les observacions i els pronòstics meteorològics.

Per canviar el mapa: feu clic els botons verds amb una creu de color negre per apropar; al botó verd amb un guió per allunyar la imatge; o en les fletxes verdes per a mapes adjacents.


METAR-TAF: